sensor_id;sensor_type;location;lat;lon;timestamp;temperature;humidity
18930;DHT22;43305;52.186;5.598;2022-10-16T00:00:49;12.90;99.90
18930;DHT22;43305;52.186;5.598;2022-10-16T00:03:19;12.80;99.90
18930;DHT22;43305;52.186;5.598;2022-10-16T00:05:46;12.90;99.90
18930;DHT22;43305;52.186;5.598;2022-10-16T00:08:12;12.90;99.90
18930;DHT22;43305;52.186;5.598;2022-10-16T00:10:40;12.90;99.90
18930;DHT22;43305;52.186;5.598;2022-10-16T00:13:09;12.90;99.90
18930;DHT22;43305;52.186;5.598;2022-10-16T00:15:36;12.90;99.90
18930;DHT22;43305;52.186;5.598;2022-10-16T00:18:06;12.90;99.90
18930;DHT22;43305;52.186;5.598;2022-10-16T00:20:34;12.90;99.90
18930;DHT22;43305;52.186;5.598;2022-10-16T00:23:02;13.00;99.90
18930;DHT22;43305;52.186;5.598;2022-10-16T00:25:29;13.00;99.90
18930;DHT22;43305;52.186;5.598;2022-10-16T00:27:59;13.10;99.90
18930;DHT22;43305;52.186;5.598;2022-10-16T00:30:26;13.10;99.90
18930;DHT22;43305;52.186;5.598;2022-10-16T00:32:54;13.10;99.90
18930;DHT22;43305;52.186;5.598;2022-10-16T00:35:22;13.00;99.90
18930;DHT22;43305;52.186;5.598;2022-10-16T00:37:49;13.00;99.90
18930;DHT22;43305;52.186;5.598;2022-10-16T00:40:16;13.00;99.90
18930;DHT22;43305;52.186;5.598;2022-10-16T00:42:43;13.00;99.90
18930;DHT22;43305;52.186;5.598;2022-10-16T00:45:10;13.00;99.90
18930;DHT22;43305;52.186;5.598;2022-10-16T00:47:39;13.10;99.90
18930;DHT22;43305;52.186;5.598;2022-10-16T00:50:09;13.00;99.90
18930;DHT22;43305;52.186;5.598;2022-10-16T00:52:41;13.00;99.90
18930;DHT22;43305;52.186;5.598;2022-10-16T00:55:12;13.10;99.90
18930;DHT22;43305;52.186;5.598;2022-10-16T00:57:40;13.10;99.90
18930;DHT22;43305;52.186;5.598;2022-10-16T01:00:11;13.10;99.90
18930;DHT22;43305;52.186;5.598;2022-10-16T01:02:38;13.10;99.90
18930;DHT22;43305;52.186;5.598;2022-10-16T01:05:05;13.10;99.90
18930;DHT22;43305;52.186;5.598;2022-10-16T01:07:41;13.10;99.90
18930;DHT22;43305;52.186;5.598;2022-10-16T01:10:17;13.10;99.90
18930;DHT22;43305;52.186;5.598;2022-10-16T01:12:51;13.20;99.90
18930;DHT22;43305;52.186;5.598;2022-10-16T01:15:26;13.10;99.90
18930;DHT22;43305;52.186;5.598;2022-10-16T01:17:59;13.10;99.90
18930;DHT22;43305;52.186;5.598;2022-10-16T01:20:32;13.10;99.90
18930;DHT22;43305;52.186;5.598;2022-10-16T01:23:10;13.20;99.90
18930;DHT22;43305;52.186;5.598;2022-10-16T01:26:02;13.20;99.90
18930;DHT22;43305;52.186;5.598;2022-10-16T01:28:39;13.20;99.90
18930;DHT22;43305;52.186;5.598;2022-10-16T01:31:08;13.20;99.90
18930;DHT22;43305;52.186;5.598;2022-10-16T01:33:41;13.20;99.90
18930;DHT22;43305;52.186;5.598;2022-10-16T01:36:13;13.20;99.90
18930;DHT22;43305;52.186;5.598;2022-10-16T01:38:41;13.20;99.90
18930;DHT22;43305;52.186;5.598;2022-10-16T01:41:13;13.20;99.90
18930;DHT22;43305;52.186;5.598;2022-10-16T01:43:46;13.20;99.90
18930;DHT22;43305;52.186;5.598;2022-10-16T01:46:17;13.20;99.90
18930;DHT22;43305;52.186;5.598;2022-10-16T01:48:45;13.20;99.90
18930;DHT22;43305;52.186;5.598;2022-10-16T01:51:14;13.20;99.90
18930;DHT22;43305;52.186;5.598;2022-10-16T01:53:43;13.20;99.90
18930;DHT22;43305;52.186;5.598;2022-10-16T01:56:15;13.20;99.90
18930;DHT22;43305;52.186;5.598;2022-10-16T01:58:47;13.20;99.90
18930;DHT22;43305;52.186;5.598;2022-10-16T02:01:19;13.20;99.90
18930;DHT22;43305;52.186;5.598;2022-10-16T02:03:51;13.20;99.90
18930;DHT22;43305;52.186;5.598;2022-10-16T02:06:19;13.20;99.90
18930;DHT22;43305;52.186;5.598;2022-10-16T02:08:47;13.20;99.90
18930;DHT22;43305;52.186;5.598;2022-10-16T02:11:14;13.20;99.90
18930;DHT22;43305;52.186;5.598;2022-10-16T02:13:46;13.20;99.90
18930;DHT22;43305;52.186;5.598;2022-10-16T02:16:15;13.20;99.90
18930;DHT22;43305;52.186;5.598;2022-10-16T02:18:43;13.20;99.90
18930;DHT22;43305;52.186;5.598;2022-10-16T02:21:15;13.20;99.90
18930;DHT22;43305;52.186;5.598;2022-10-16T02:23:54;13.20;99.90
18930;DHT22;43305;52.186;5.598;2022-10-16T02:26:28;13.20;99.90
18930;DHT22;43305;52.186;5.598;2022-10-16T02:29:04;13.20;99.90
18930;DHT22;43305;52.186;5.598;2022-10-16T02:31:38;13.20;99.90
18930;DHT22;43305;52.186;5.598;2022-10-16T02:34:08;13.20;99.90
18930;DHT22;43305;52.186;5.598;2022-10-16T02:36:38;13.20;99.90
18930;DHT22;43305;52.186;5.598;2022-10-16T02:39:06;13.20;99.90
18930;DHT22;43305;52.186;5.598;2022-10-16T02:41:33;13.30;99.90
18930;DHT22;43305;52.186;5.598;2022-10-16T02:44:01;13.30;99.90
18930;DHT22;43305;52.186;5.598;2022-10-16T02:46:28;13.20;99.90
18930;DHT22;43305;52.186;5.598;2022-10-16T02:48:57;13.20;99.90
18930;DHT22;43305;52.186;5.598;2022-10-16T02:51:24;13.20;99.90
18930;DHT22;43305;52.186;5.598;2022-10-16T02:53:50;13.20;99.90
18930;DHT22;43305;52.186;5.598;2022-10-16T02:56:17;13.30;99.90
18930;DHT22;43305;52.186;5.598;2022-10-16T02:58:44;13.30;99.90
18930;DHT22;43305;52.186;5.598;2022-10-16T03:01:12;13.20;99.90
18930;DHT22;43305;52.186;5.598;2022-10-16T03:03:42;13.20;99.90
18930;DHT22;43305;52.186;5.598;2022-10-16T03:06:09;13.20;99.90
18930;DHT22;43305;52.186;5.598;2022-10-16T03:08:35;13.20;99.90
18930;DHT22;43305;52.186;5.598;2022-10-16T03:11:02;13.20;99.90
18930;DHT22;43305;52.186;5.598;2022-10-16T03:13:29;13.20;99.90
18930;DHT22;43305;52.186;5.598;2022-10-16T03:15:56;13.20;99.90
18930;DHT22;43305;52.186;5.598;2022-10-16T03:18:24;13.20;99.90
18930;DHT22;43305;52.186;5.598;2022-10-16T03:20:51;13.20;99.90
18930;DHT22;43305;52.186;5.598;2022-10-16T03:23:17;13.10;99.90
18930;DHT22;43305;52.186;5.598;2022-10-16T03:25:44;13.10;99.90
18930;DHT22;43305;52.186;5.598;2022-10-16T03:28:11;13.10;99.90
18930;DHT22;43305;52.186;5.598;2022-10-16T03:30:38;13.10;99.90
18930;DHT22;43305;52.186;5.598;2022-10-16T03:33:05;13.10;99.90
18930;DHT22;43305;52.186;5.598;2022-10-16T03:35:34;13.10;99.90
18930;DHT22;43305;52.186;5.598;2022-10-16T03:38:01;13.10;99.90
18930;DHT22;43305;52.186;5.598;2022-10-16T03:40:28;13.00;99.90
18930;DHT22;43305;52.186;5.598;2022-10-16T03:42:57;13.10;99.90
18930;DHT22;43305;52.186;5.598;2022-10-16T03:45:24;13.00;99.90
18930;DHT22;43305;52.186;5.598;2022-10-16T03:47:51;13.00;99.90
18930;DHT22;43305;52.186;5.598;2022-10-16T03:50:18;13.00;99.90
18930;DHT22;43305;52.186;5.598;2022-10-16T03:52:46;13.00;99.90
18930;DHT22;43305;52.186;5.598;2022-10-16T03:55:13;13.00;99.90
18930;DHT22;43305;52.186;5.598;2022-10-16T03:57:40;13.00;99.90
18930;DHT22;43305;52.186;5.598;2022-10-16T04:00:07;13.00;99.90
18930;DHT22;43305;52.186;5.598;2022-10-16T04:02:34;12.90;99.90
18930;DHT22;43305;52.186;5.598;2022-10-16T04:05:01;12.90;99.90
18930;DHT22;43305;52.186;5.598;2022-10-16T04:07:28;12.90;99.90
18930;DHT22;43305;52.186;5.598;2022-10-16T04:09:56;12.90;99.90
18930;DHT22;43305;52.186;5.598;2022-10-16T04:12:24;12.80;99.90
18930;DHT22;43305;52.186;5.598;2022-10-16T04:14:51;12.90;99.90
18930;DHT22;43305;52.186;5.598;2022-10-16T04:17:17;12.80;99.90
18930;DHT22;43305;52.186;5.598;2022-10-16T04:19:45;12.80;99.90
18930;DHT22;43305;52.186;5.598;2022-10-16T04:22:14;12.80;99.90
18930;DHT22;43305;52.186;5.598;2022-10-16T04:24:40;12.80;99.90
18930;DHT22;43305;52.186;5.598;2022-10-16T04:27:08;12.80;99.90
18930;DHT22;43305;52.186;5.598;2022-10-16T04:29:35;12.80;99.90
18930;DHT22;43305;52.186;5.598;2022-10-16T04:32:02;12.80;99.90
18930;DHT22;43305;52.186;5.598;2022-10-16T04:34:29;12.80;99.90
18930;DHT22;43305;52.186;5.598;2022-10-16T04:36:56;12.70;99.90
18930;DHT22;43305;52.186;5.598;2022-10-16T04:39:22;12.70;99.90
18930;DHT22;43305;52.186;5.598;2022-10-16T04:41:50;12.70;99.90
18930;DHT22;43305;52.186;5.598;2022-10-16T04:44:18;12.70;99.90
18930;DHT22;43305;52.186;5.598;2022-10-16T04:46:44;12.70;99.90
18930;DHT22;43305;52.186;5.598;2022-10-16T04:49:11;12.70;99.90
18930;DHT22;43305;52.186;5.598;2022-10-16T04:51:40;12.70;99.90
18930;DHT22;43305;52.186;5.598;2022-10-16T04:54:06;12.70;99.90
18930;DHT22;43305;52.186;5.598;2022-10-16T04:56:33;12.70;99.90
18930;DHT22;43305;52.186;5.598;2022-10-16T04:59:06;12.70;99.90
18930;DHT22;43305;52.186;5.598;2022-10-16T05:01:35;12.60;99.90
18930;DHT22;43305;52.186;5.598;2022-10-16T05:04:04;12.60;99.90
18930;DHT22;43305;52.186;5.598;2022-10-16T05:06:30;12.70;99.90
18930;DHT22;43305;52.186;5.598;2022-10-16T05:08:57;12.70;99.90
18930;DHT22;43305;52.186;5.598;2022-10-16T05:11:24;12.60;99.90
18930;DHT22;43305;52.186;5.598;2022-10-16T05:13:51;12.70;99.90
18930;DHT22;43305;52.186;5.598;2022-10-16T05:16:17;12.70;99.90
18930;DHT22;43305;52.186;5.598;2022-10-16T05:18:45;12.70;99.90
18930;DHT22;43305;52.186;5.598;2022-10-16T05:21:12;12.70;99.90
18930;DHT22;43305;52.186;5.598;2022-10-16T05:23:39;12.60;99.90
18930;DHT22;43305;52.186;5.598;2022-10-16T05:26:08;12.60;99.90
18930;DHT22;43305;52.186;5.598;2022-10-16T05:28:34;12.60;99.90
18930;DHT22;43305;52.186;5.598;2022-10-16T05:31:04;12.60;99.90
18930;DHT22;43305;52.186;5.598;2022-10-16T05:33:32;12.60;99.90
18930;DHT22;43305;52.186;5.598;2022-10-16T05:36:02;12.60;99.90
18930;DHT22;43305;52.186;5.598;2022-10-16T05:38:29;12.60;99.90
18930;DHT22;43305;52.186;5.598;2022-10-16T05:40:59;12.50;99.90
18930;DHT22;43305;52.186;5.598;2022-10-16T05:43:27;12.60;99.90
18930;DHT22;43305;52.186;5.598;2022-10-16T05:45:55;12.50;99.90
18930;DHT22;43305;52.186;5.598;2022-10-16T05:48:22;12.50;99.90
18930;DHT22;43305;52.186;5.598;2022-10-16T05:50:55;12.50;99.90
18930;DHT22;43305;52.186;5.598;2022-10-16T05:53:24;12.50;99.90
18930;DHT22;43305;52.186;5.598;2022-10-16T05:55:52;12.50;99.90
18930;DHT22;43305;52.186;5.598;2022-10-16T05:58:19;12.50;99.90
18930;DHT22;43305;52.186;5.598;2022-10-16T06:00:53;12.60;99.90
18930;DHT22;43305;52.186;5.598;2022-10-16T06:03:19;12.60;99.90
18930;DHT22;43305;52.186;5.598;2022-10-16T06:05:46;12.60;99.90
18930;DHT22;43305;52.186;5.598;2022-10-16T06:08:13;12.60;99.90
18930;DHT22;43305;52.186;5.598;2022-10-16T06:10:41;12.60;99.90
18930;DHT22;43305;52.186;5.598;2022-10-16T06:13:09;12.60;99.90
18930;DHT22;43305;52.186;5.598;2022-10-16T06:15:36;12.60;99.90
18930;DHT22;43305;52.186;5.598;2022-10-16T06:18:04;12.60;99.90
18930;DHT22;43305;52.186;5.598;2022-10-16T06:20:31;12.60;99.90
18930;DHT22;43305;52.186;5.598;2022-10-16T06:22:57;12.70;99.90
18930;DHT22;43305;52.186;5.598;2022-10-16T06:25:24;12.70;99.90
18930;DHT22;43305;52.186;5.598;2022-10-16T06:27:53;12.70;99.90
18930;DHT22;43305;52.186;5.598;2022-10-16T06:30:19;12.70;99.90
18930;DHT22;43305;52.186;5.598;2022-10-16T06:32:46;12.70;99.90
18930;DHT22;43305;52.186;5.598;2022-10-16T06:35:14;12.70;99.90
18930;DHT22;43305;52.186;5.598;2022-10-16T06:37:43;12.70;99.90
18930;DHT22;43305;52.186;5.598;2022-10-16T06:40:10;12.80;99.90
18930;DHT22;43305;52.186;5.598;2022-10-16T06:42:39;12.70;99.90
18930;DHT22;43305;52.186;5.598;2022-10-16T06:45:08;12.80;99.90
18930;DHT22;43305;52.186;5.598;2022-10-16T06:47:35;12.80;99.90
18930;DHT22;43305;52.186;5.598;2022-10-16T06:50:02;12.80;99.90
18930;DHT22;43305;52.186;5.598;2022-10-16T06:52:29;12.80;99.90
18930;DHT22;43305;52.186;5.598;2022-10-16T06:54:56;12.80;99.90
18930;DHT22;43305;52.186;5.598;2022-10-16T06:57:22;12.80;99.90
18930;DHT22;43305;52.186;5.598;2022-10-16T06:59:49;12.80;99.90
18930;DHT22;43305;52.186;5.598;2022-10-16T07:02:17;12.90;99.90
18930;DHT22;43305;52.186;5.598;2022-10-16T07:04:44;12.80;99.90
18930;DHT22;43305;52.186;5.598;2022-10-16T07:07:11;12.90;99.90
18930;DHT22;43305;52.186;5.598;2022-10-16T07:09:37;12.90;99.90
18930;DHT22;43305;52.186;5.598;2022-10-16T07:12:04;12.90;99.90
18930;DHT22;43305;52.186;5.598;2022-10-16T07:14:31;12.90;99.90
18930;DHT22;43305;52.186;5.598;2022-10-16T07:16:58;12.90;99.90
18930;DHT22;43305;52.186;5.598;2022-10-16T07:19:26;13.00;99.90
18930;DHT22;43305;52.186;5.598;2022-10-16T07:21:56;13.00;99.90
18930;DHT22;43305;52.186;5.598;2022-10-16T07:24:23;13.10;99.90
18930;DHT22;43305;52.186;5.598;2022-10-16T07:26:50;13.10;99.90
18930;DHT22;43305;52.186;5.598;2022-10-16T07:29:19;13.10;99.90
18930;DHT22;43305;52.186;5.598;2022-10-16T07:31:47;13.20;99.90
18930;DHT22;43305;52.186;5.598;2022-10-16T07:34:16;13.20;99.90
18930;DHT22;43305;52.186;5.598;2022-10-16T07:36:46;13.20;99.90
18930;DHT22;43305;52.186;5.598;2022-10-16T07:39:13;13.30;99.90
18930;DHT22;43305;52.186;5.598;2022-10-16T07:41:40;13.30;99.90
18930;DHT22;43305;52.186;5.598;2022-10-16T07:44:07;13.30;99.90
18930;DHT22;43305;52.186;5.598;2022-10-16T07:46:35;13.40;99.90
18930;DHT22;43305;52.186;5.598;2022-10-16T07:49:04;13.40;99.90
18930;DHT22;43305;52.186;5.598;2022-10-16T07:51:31;13.40;99.90
18930;DHT22;43305;52.186;5.598;2022-10-16T07:53:59;13.50;99.90
18930;DHT22;43305;52.186;5.598;2022-10-16T07:56:27;13.60;99.90
18930;DHT22;43305;52.186;5.598;2022-10-16T07:58:53;13.60;99.90
18930;DHT22;43305;52.186;5.598;2022-10-16T08:01:21;13.70;99.90
18930;DHT22;43305;52.186;5.598;2022-10-16T08:03:50;13.60;99.90
18930;DHT22;43305;52.186;5.598;2022-10-16T08:06:18;13.60;99.90
18930;DHT22;43305;52.186;5.598;2022-10-16T08:08:46;13.60;99.90
18930;DHT22;43305;52.186;5.598;2022-10-16T08:11:15;13.60;99.90
18930;DHT22;43305;52.186;5.598;2022-10-16T08:13:42;13.80;99.90
18930;DHT22;43305;52.186;5.598;2022-10-16T08:16:09;13.90;99.90
18930;DHT22;43305;52.186;5.598;2022-10-16T08:18:37;14.10;99.90
18930;DHT22;43305;52.186;5.598;2022-10-16T08:21:05;14.10;99.90
18930;DHT22;43305;52.186;5.598;2022-10-16T08:23:33;14.20;99.90
18930;DHT22;43305;52.186;5.598;2022-10-16T08:26:04;14.30;99.90
18930;DHT22;43305;52.186;5.598;2022-10-16T08:28:32;14.30;99.90
18930;DHT22;43305;52.186;5.598;2022-10-16T08:31:08;14.30;99.90
18930;DHT22;43305;52.186;5.598;2022-10-16T08:33:37;14.40;99.90
18930;DHT22;43305;52.186;5.598;2022-10-16T08:36:05;14.60;99.90
18930;DHT22;43305;52.186;5.598;2022-10-16T08:38:34;14.70;99.90
18930;DHT22;43305;52.186;5.598;2022-10-16T08:41:17;14.90;99.90
18930;DHT22;43305;52.186;5.598;2022-10-16T08:44:03;15.10;99.90
18930;DHT22;43305;52.186;5.598;2022-10-16T08:46:40;15.30;99.90
18930;DHT22;43305;52.186;5.598;2022-10-16T08:49:11;15.40;99.90
18930;DHT22;43305;52.186;5.598;2022-10-16T08:51:38;15.40;99.90
18930;DHT22;43305;52.186;5.598;2022-10-16T08:54:10;15.60;99.90
18930;DHT22;43305;52.186;5.598;2022-10-16T08:56:37;15.40;99.90
18930;DHT22;43305;52.186;5.598;2022-10-16T08:59:10;15.50;99.90
18930;DHT22;43305;52.186;5.598;2022-10-16T09:01:40;15.60;99.90
18930;DHT22;43305;52.186;5.598;2022-10-16T09:04:29;15.70;99.90
18930;DHT22;43305;52.186;5.598;2022-10-16T09:07:03;15.80;99.90
18930;DHT22;43305;52.186;5.598;2022-10-16T09:09:39;15.80;99.90
18930;DHT22;43305;52.186;5.598;2022-10-16T09:12:14;15.80;99.90
18930;DHT22;43305;52.186;5.598;2022-10-16T09:14:51;16.00;99.90
18930;DHT22;43305;52.186;5.598;2022-10-16T09:17:27;16.20;99.90
18930;DHT22;43305;52.186;5.598;2022-10-16T09:20:12;16.40;99.90
18930;DHT22;43305;52.186;5.598;2022-10-16T09:22:40;16.30;99.90
18930;DHT22;43305;52.186;5.598;2022-10-16T09:25:11;16.40;99.90
18930;DHT22;43305;52.186;5.598;2022-10-16T09:27:39;16.60;99.90
18930;DHT22;43305;52.186;5.598;2022-10-16T09:30:12;16.60;99.90
18930;DHT22;43305;52.186;5.598;2022-10-16T09:32:40;16.60;99.90
18930;DHT22;43305;52.186;5.598;2022-10-16T09:35:13;16.70;99.90
18930;DHT22;43305;52.186;5.598;2022-10-16T09:37:41;16.50;99.90
18930;DHT22;43305;52.186;5.598;2022-10-16T09:40:13;16.60;99.90
18930;DHT22;43305;52.186;5.598;2022-10-16T09:42:40;16.70;99.90
18930;DHT22;43305;52.186;5.598;2022-10-16T09:45:22;16.80;99.90
18930;DHT22;43305;52.186;5.598;2022-10-16T09:47:49;16.80;99.90
18930;DHT22;43305;52.186;5.598;2022-10-16T09:50:22;16.90;99.90
18930;DHT22;43305;52.186;5.598;2022-10-16T09:53:02;17.00;99.90
18930;DHT22;43305;52.186;5.598;2022-10-16T09:55:29;17.10;99.90
18930;DHT22;43305;52.186;5.598;2022-10-16T09:57:56;17.30;99.90
18930;DHT22;43305;52.186;5.598;2022-10-16T10:00:24;17.30;99.90
18930;DHT22;43305;52.186;5.598;2022-10-16T10:02:52;17.60;99.90
18930;DHT22;43305;52.186;5.598;2022-10-16T10:05:21;17.80;99.90
18930;DHT22;43305;52.186;5.598;2022-10-16T10:07:54;17.90;99.90
18930;DHT22;43305;52.186;5.598;2022-10-16T10:10:23;17.80;99.90
18930;DHT22;43305;52.186;5.598;2022-10-16T10:12:51;17.70;99.90
18930;DHT22;43305;52.186;5.598;2022-10-16T10:15:18;17.60;99.90
18930;DHT22;43305;52.186;5.598;2022-10-16T10:17:50;17.40;99.90
18930;DHT22;43305;52.186;5.598;2022-10-16T10:20:27;17.50;99.90
18930;DHT22;43305;52.186;5.598;2022-10-16T10:22:54;17.70;99.90
18930;DHT22;43305;52.186;5.598;2022-10-16T10:25:32;17.50;99.90
18930;DHT22;43305;52.186;5.598;2022-10-16T10:28:21;17.40;99.90
18930;DHT22;43305;52.186;5.598;2022-10-16T10:30:55;17.30;99.90
18930;DHT22;43305;52.186;5.598;2022-10-16T10:33:31;17.40;99.90
18930;DHT22;43305;52.186;5.598;2022-10-16T10:36:08;17.70;99.90
18930;DHT22;43305;52.186;5.598;2022-10-16T10:38:42;18.00;99.90
18930;DHT22;43305;52.186;5.598;2022-10-16T10:41:24;18.20;99.90
18930;DHT22;43305;52.186;5.598;2022-10-16T10:44:01;18.50;99.90
18930;DHT22;43305;52.186;5.598;2022-10-16T10:46:34;18.70;99.90
18930;DHT22;43305;52.186;5.598;2022-10-16T10:49:11;18.70;99.90
18930;DHT22;43305;52.186;5.598;2022-10-16T10:51:49;18.80;99.90
18930;DHT22;43305;52.186;5.598;2022-10-16T10:54:22;18.40;99.90
18930;DHT22;43305;52.186;5.598;2022-10-16T10:56:57;18.40;99.90
18930;DHT22;43305;52.186;5.598;2022-10-16T10:59:44;18.70;99.90
18930;DHT22;43305;52.186;5.598;2022-10-16T11:02:21;18.80;99.90
18930;DHT22;43305;52.186;5.598;2022-10-16T11:07:49;18.30;99.90
18930;DHT22;43305;52.186;5.598;2022-10-16T11:10:20;18.50;99.90
18930;DHT22;43305;52.186;5.598;2022-10-16T11:12:58;18.70;99.90
18930;DHT22;43305;52.186;5.598;2022-10-16T11:15:30;18.80;99.90
18930;DHT22;43305;52.186;5.598;2022-10-16T11:18:03;19.00;99.90
18930;DHT22;43305;52.186;5.598;2022-10-16T11:20:37;19.10;99.90
18930;DHT22;43305;52.186;5.598;2022-10-16T11:23:11;18.90;99.90
18930;DHT22;43305;52.186;5.598;2022-10-16T11:25:43;18.60;99.90
18930;DHT22;43305;52.186;5.598;2022-10-16T11:28:12;18.60;99.90
18930;DHT22;43305;52.186;5.598;2022-10-16T11:30:44;18.90;99.90
18930;DHT22;43305;52.186;5.598;2022-10-16T11:33:29;18.70;99.90
18930;DHT22;43305;52.186;5.598;2022-10-16T11:36:02;18.40;99.90
18930;DHT22;43305;52.186;5.598;2022-10-16T11:38:37;18.20;99.90
18930;DHT22;43305;52.186;5.598;2022-10-16T11:41:12;17.80;99.90
18930;DHT22;43305;52.186;5.598;2022-10-16T11:43:52;17.60;99.90
18930;DHT22;43305;52.186;5.598;2022-10-16T11:46:26;17.40;99.90
18930;DHT22;43305;52.186;5.598;2022-10-16T11:48:57;17.50;99.90
18930;DHT22;43305;52.186;5.598;2022-10-16T11:51:33;17.40;99.90
18930;DHT22;43305;52.186;5.598;2022-10-16T11:54:07;17.40;99.90
18930;DHT22;43305;52.186;5.598;2022-10-16T11:56:38;17.50;99.90
18930;DHT22;43305;52.186;5.598;2022-10-16T11:59:13;17.80;99.90
18930;DHT22;43305;52.186;5.598;2022-10-16T12:01:46;17.90;99.90
18930;DHT22;43305;52.186;5.598;2022-10-16T12:04:21;18.00;99.90
18930;DHT22;43305;52.186;5.598;2022-10-16T12:06:58;18.10;99.90
18930;DHT22;43305;52.186;5.598;2022-10-16T12:09:29;18.20;99.90
18930;DHT22;43305;52.186;5.598;2022-10-16T12:12:03;18.30;99.90
18930;DHT22;43305;52.186;5.598;2022-10-16T12:14:36;18.30;99.90
18930;DHT22;43305;52.186;5.598;2022-10-16T12:17:23;18.30;99.90
18930;DHT22;43305;52.186;5.598;2022-10-16T12:19:58;18.50;99.90
18930;DHT22;43305;52.186;5.598;2022-10-16T12:22:29;18.60;99.90
18930;DHT22;43305;52.186;5.598;2022-10-16T12:24:58;18.60;99.90
18930;DHT22;43305;52.186;5.598;2022-10-16T12:27:32;18.80;99.90
18930;DHT22;43305;52.186;5.598;2022-10-16T12:30:22;18.80;99.90
18930;DHT22;43305;52.186;5.598;2022-10-16T12:32:56;18.80;99.90
18930;DHT22;43305;52.186;5.598;2022-10-16T12:35:27;18.90;99.90
18930;DHT22;43305;52.186;5.598;2022-10-16T12:38:16;18.90;99.90
18930;DHT22;43305;52.186;5.598;2022-10-16T12:40:55;18.90;99.90
18930;DHT22;43305;52.186;5.598;2022-10-16T12:43:35;18.80;99.90
18930;DHT22;43305;52.186;5.598;2022-10-16T12:46:26;18.90;99.90
18930;DHT22;43305;52.186;5.598;2022-10-16T12:49:19;18.80;99.90
18930;DHT22;43305;52.186;5.598;2022-10-16T12:51:50;18.80;99.90
18930;DHT22;43305;52.186;5.598;2022-10-16T12:54:25;18.90;99.90
18930;DHT22;43305;52.186;5.598;2022-10-16T12:57:09;18.80;99.90
18930;DHT22;43305;52.186;5.598;2022-10-16T12:59:57;18.90;99.90
18930;DHT22;43305;52.186;5.598;2022-10-16T13:02:49;19.10;99.90
18930;DHT22;43305;52.186;5.598;2022-10-16T13:05:29;19.20;99.90
18930;DHT22;43305;52.186;5.598;2022-10-16T13:08:16;19.20;99.90
18930;DHT22;43305;52.186;5.598;2022-10-16T13:10:59;19.30;99.90
18930;DHT22;43305;52.186;5.598;2022-10-16T13:13:47;19.20;99.90
18930;DHT22;43305;52.186;5.598;2022-10-16T13:16:23;19.20;99.90
18930;DHT22;43305;52.186;5.598;2022-10-16T13:19:06;19.30;99.90
18930;DHT22;43305;52.186;5.598;2022-10-16T13:21:45;19.40;99.90
18930;DHT22;43305;52.186;5.598;2022-10-16T13:24:22;19.20;99.90
18930;DHT22;43305;52.186;5.598;2022-10-16T13:26:59;19.20;99.90
18930;DHT22;43305;52.186;5.598;2022-10-16T13:29:34;19.20;99.90
18930;DHT22;43305;52.186;5.598;2022-10-16T13:32:06;19.30;99.90
18930;DHT22;43305;52.186;5.598;2022-10-16T13:34:43;19.20;99.90
18930;DHT22;43305;52.186;5.598;2022-10-16T13:37:23;19.20;99.90
18930;DHT22;43305;52.186;5.598;2022-10-16T13:40:06;19.20;99.90
18930;DHT22;43305;52.186;5.598;2022-10-16T13:42:36;19.20;99.90
18930;DHT22;43305;52.186;5.598;2022-10-16T13:45:05;19.30;99.90
18930;DHT22;43305;52.186;5.598;2022-10-16T13:47:33;19.40;99.90
18930;DHT22;43305;52.186;5.598;2022-10-16T13:50:03;19.20;99.90
18930;DHT22;43305;52.186;5.598;2022-10-16T13:52:34;19.20;99.90
18930;DHT22;43305;52.186;5.598;2022-10-16T13:55:12;19.00;99.90
18930;DHT22;43305;52.186;5.598;2022-10-16T13:57:49;18.80;99.90
18930;DHT22;43305;52.186;5.598;2022-10-16T14:00:19;18.60;99.90
18930;DHT22;43305;52.186;5.598;2022-10-16T14:03:00;18.60;99.90
18930;DHT22;43305;52.186;5.598;2022-10-16T14:05:31;18.60;99.90
18930;DHT22;43305;52.186;5.598;2022-10-16T14:07:59;18.60;99.90
18930;DHT22;43305;52.186;5.598;2022-10-16T14:10:30;18.50;99.90
18930;DHT22;43305;52.186;5.598;2022-10-16T14:13:04;18.40;99.90
18930;DHT22;43305;52.186;5.598;2022-10-16T14:15:33;18.30;99.90
18930;DHT22;43305;52.186;5.598;2022-10-16T14:18:01;18.30;99.90
18930;DHT22;43305;52.186;5.598;2022-10-16T14:20:30;18.30;99.90
18930;DHT22;43305;52.186;5.598;2022-10-16T14:23:00;18.30;99.90
18930;DHT22;43305;52.186;5.598;2022-10-16T14:25:30;18.30;99.90
18930;DHT22;43305;52.186;5.598;2022-10-16T14:28:03;18.40;99.90
18930;DHT22;43305;52.186;5.598;2022-10-16T14:30:32;18.30;99.90
18930;DHT22;43305;52.186;5.598;2022-10-16T14:33:05;18.30;99.90
18930;DHT22;43305;52.186;5.598;2022-10-16T14:35:44;18.20;99.90
18930;DHT22;43305;52.186;5.598;2022-10-16T14:38:19;18.20;99.90
18930;DHT22;43305;52.186;5.598;2022-10-16T14:40:48;18.20;99.90
18930;DHT22;43305;52.186;5.598;2022-10-16T14:43:29;18.20;99.90
18930;DHT22;43305;52.186;5.598;2022-10-16T14:46:02;18.10;99.90
18930;DHT22;43305;52.186;5.598;2022-10-16T14:48:29;18.10;99.90
18930;DHT22;43305;52.186;5.598;2022-10-16T14:50:56;18.10;99.90
18930;DHT22;43305;52.186;5.598;2022-10-16T14:53:25;18.20;99.90
18930;DHT22;43305;52.186;5.598;2022-10-16T14:55:54;18.30;99.90
18930;DHT22;43305;52.186;5.598;2022-10-16T14:58:24;18.40;99.90
18930;DHT22;43305;52.186;5.598;2022-10-16T15:00:51;18.40;99.90
18930;DHT22;43305;52.186;5.598;2022-10-16T15:03:18;18.40;99.90
18930;DHT22;43305;52.186;5.598;2022-10-16T15:05:45;18.30;99.90
18930;DHT22;43305;52.186;5.598;2022-10-16T15:08:12;18.30;99.90
18930;DHT22;43305;52.186;5.598;2022-10-16T15:10:40;18.20;99.90
18930;DHT22;43305;52.186;5.598;2022-10-16T15:13:11;18.20;99.90
18930;DHT22;43305;52.186;5.598;2022-10-16T15:15:41;18.10;99.90
18930;DHT22;43305;52.186;5.598;2022-10-16T15:18:09;18.00;99.90
18930;DHT22;43305;52.186;5.598;2022-10-16T15:20:47;18.00;99.90
18930;DHT22;43305;52.186;5.598;2022-10-16T15:23:17;18.00;99.90
18930;DHT22;43305;52.186;5.598;2022-10-16T15:25:47;17.90;99.90
18930;DHT22;43305;52.186;5.598;2022-10-16T15:28:15;17.90;99.90
18930;DHT22;43305;52.186;5.598;2022-10-16T15:30:46;17.90;99.90
18930;DHT22;43305;52.186;5.598;2022-10-16T15:33:21;17.90;99.90
18930;DHT22;43305;52.186;5.598;2022-10-16T15:35:50;17.80;99.90
18930;DHT22;43305;52.186;5.598;2022-10-16T15:38:18;17.80;99.90
18930;DHT22;43305;52.186;5.598;2022-10-16T15:40:46;17.70;99.90
18930;DHT22;43305;52.186;5.598;2022-10-16T15:43:13;17.60;99.90
18930;DHT22;43305;52.186;5.598;2022-10-16T15:45:40;17.50;99.90
18930;DHT22;43305;52.186;5.598;2022-10-16T15:48:13;17.40;99.90
18930;DHT22;43305;52.186;5.598;2022-10-16T15:50:40;17.30;99.90
18930;DHT22;43305;52.186;5.598;2022-10-16T15:53:08;17.20;99.90
18930;DHT22;43305;52.186;5.598;2022-10-16T15:55:35;17.10;99.90